createdAt,value
2018-08-06T00:00:47.936Z,93.90
2018-08-06T00:03:16.745Z,94.00
2018-08-06T00:05:45.677Z,94.00
2018-08-06T00:08:13.810Z,94.00
2018-08-06T00:10:41.876Z,94.10
2018-08-06T00:13:09.857Z,94.10
2018-08-06T00:15:38.623Z,94.20
2018-08-06T00:18:06.790Z,94.40
2018-08-06T00:20:34.900Z,94.40
2018-08-06T00:23:02.864Z,94.60
2018-08-06T00:25:30.953Z,94.50
2018-08-06T00:27:58.958Z,94.60
2018-08-06T00:30:27.079Z,94.60
2018-08-06T00:32:55.349Z,95.50
2018-08-06T00:35:23.505Z,96.90
2018-08-06T00:37:51.624Z,98.00
2018-08-06T00:40:20.814Z,98.30
2018-08-06T00:42:49.300Z,98.50
2018-08-06T00:45:18.970Z,98.80
2018-08-06T00:47:47.620Z,99.20
2018-08-06T00:50:15.871Z,99.40
2018-08-06T00:52:44.652Z,99.40
2018-08-06T00:55:14.820Z,99.40
2018-08-06T00:57:43.361Z,99.50
2018-08-06T01:00:13.264Z,99.90
2018-08-06T01:02:42.271Z,99.80
2018-08-06T01:05:11.728Z,99.90
2018-08-06T01:07:40.149Z,99.90
2018-08-06T01:10:10.165Z,99.90
2018-08-06T01:12:39.312Z,99.90
2018-08-06T01:15:09.514Z,99.90
2018-08-06T01:17:37.713Z,99.90
2018-08-06T01:20:07.355Z,99.90
2018-08-06T01:22:35.363Z,99.90
2018-08-06T01:25:03.604Z,99.90
2018-08-06T01:27:31.584Z,99.90
2018-08-06T01:29:59.792Z,99.90
2018-08-06T01:32:27.878Z,99.90
2018-08-06T01:34:55.967Z,99.90
2018-08-06T01:37:23.944Z,99.90
2018-08-06T01:39:52.389Z,99.90
2018-08-06T01:42:20.384Z,99.90
2018-08-06T01:44:48.348Z,99.90
2018-08-06T01:47:16.442Z,99.90
2018-08-06T01:49:44.426Z,99.90
2018-08-06T01:52:12.535Z,99.90
2018-08-06T01:54:40.671Z,99.90
2018-08-06T01:57:08.708Z,99.90
2018-08-06T01:59:36.755Z,99.90
2018-08-06T02:02:05.387Z,99.90
2018-08-06T02:04:34.517Z,99.90
2018-08-06T02:07:03.264Z,99.90
2018-08-06T02:09:31.334Z,99.90
2018-08-06T02:11:59.412Z,99.90
2018-08-06T02:14:27.475Z,99.90
2018-08-06T02:16:55.480Z,99.90
2018-08-06T02:19:23.800Z,99.90
2018-08-06T02:21:51.835Z,99.90
2018-08-06T02:24:21.864Z,99.90
2018-08-06T02:26:49.912Z,99.90
2018-08-06T02:29:17.893Z,99.90
2018-08-06T02:31:45.956Z,99.90
2018-08-06T02:34:13.996Z,99.90
2018-08-06T02:36:42.181Z,99.90
2018-08-06T02:39:11.101Z,99.90
2018-08-06T02:41:39.366Z,99.90
2018-08-06T02:44:07.580Z,99.90
2018-08-06T02:46:35.732Z,99.90
2018-08-06T02:49:04.147Z,99.90
2018-08-06T02:51:32.133Z,99.90
2018-08-06T02:54:00.352Z,99.90
2018-08-06T02:56:28.517Z,99.90
2018-08-06T02:58:56.593Z,99.90
2018-08-06T03:01:24.649Z,99.90
2018-08-06T03:03:52.608Z,99.90
2018-08-06T03:06:21.548Z,99.90
2018-08-06T03:08:49.631Z,99.90
2018-08-06T03:11:17.665Z,99.90
2018-08-06T03:13:45.692Z,99.90
2018-08-06T03:16:13.688Z,99.90
2018-08-06T03:18:41.735Z,99.90
2018-08-06T03:21:09.725Z,99.90
2018-08-06T03:23:38.056Z,99.90
2018-08-06T03:26:06.238Z,99.90
2018-08-06T03:28:34.201Z,99.90
2018-08-06T03:31:02.271Z,99.90
2018-08-06T03:33:30.270Z,99.90
2018-08-06T03:35:58.288Z,99.90
2018-08-06T03:38:26.331Z,99.90
2018-08-06T03:40:54.266Z,99.90
2018-08-06T03:43:22.935Z,99.90
2018-08-06T03:45:50.920Z,99.90
2018-08-06T03:48:19.019Z,99.90
2018-08-06T03:50:47.178Z,99.90
2018-08-06T03:53:15.311Z,99.90
2018-08-06T03:55:43.610Z,99.90
2018-08-06T03:58:11.664Z,99.90
2018-08-06T04:00:39.840Z,99.90
2018-08-06T04:03:07.860Z,99.90
2018-08-06T04:05:35.793Z,99.90
2018-08-06T04:08:04.831Z,99.90
2018-08-06T04:10:33.008Z,99.90
2018-08-06T04:13:01.093Z,99.90
2018-08-06T04:15:29.361Z,99.90
2018-08-06T04:17:57.379Z,99.90
2018-08-06T04:20:25.493Z,99.90
2018-08-06T04:22:53.468Z,99.90
2018-08-06T04:25:21.469Z,99.90
2018-08-06T04:27:49.904Z,99.90
2018-08-06T04:30:18.220Z,99.90
2018-08-06T04:32:46.464Z,99.90
2018-08-06T04:37:43.765Z,99.90
2018-08-06T04:40:12.398Z,99.90
2018-08-06T04:42:41.285Z,99.90
2018-08-06T04:45:10.508Z,99.90
2018-08-06T04:47:39.585Z,99.90
2018-08-06T04:52:36.689Z,99.90
2018-08-06T04:55:06.928Z,99.90
2018-08-06T04:57:37.548Z,99.90
2018-08-06T05:00:09.693Z,99.90
2018-08-06T05:02:40.720Z,99.90
2018-08-06T05:05:09.784Z,99.90
2018-08-06T05:07:37.923Z,99.90
2018-08-06T05:10:06.641Z,99.90
2018-08-06T05:12:34.672Z,99.90
2018-08-06T05:15:02.803Z,99.90
2018-08-06T05:17:31.568Z,99.90
2018-08-06T05:20:00.486Z,99.90
2018-08-06T05:22:29.345Z,99.90
2018-08-06T05:24:57.401Z,99.90
2018-08-06T05:27:25.372Z,99.90
2018-08-06T05:29:53.317Z,99.90
2018-08-06T05:32:21.317Z,99.90
2018-08-06T05:34:49.318Z,99.90
2018-08-06T05:37:17.462Z,99.90
2018-08-06T05:39:45.434Z,99.90
2018-08-06T05:42:13.648Z,99.90
2018-08-06T05:44:43.567Z,99.90
2018-08-06T05:47:11.693Z,99.90
2018-08-06T05:49:39.662Z,99.90
2018-08-06T05:52:08.043Z,99.90
2018-08-06T05:54:36.029Z,99.90
2018-08-06T05:57:04.294Z,99.90
2018-08-06T05:59:32.252Z,99.90
2018-08-06T06:02:00.436Z,99.90
2018-08-06T06:04:28.502Z,99.90
2018-08-06T06:06:56.544Z,99.90
2018-08-06T06:09:24.524Z,99.90
2018-08-06T06:11:52.832Z,99.90
2018-08-06T06:14:20.819Z,99.90
2018-08-06T06:16:49.442Z,99.90
2018-08-06T06:19:18.050Z,99.90
2018-08-06T06:21:46.098Z,99.90
2018-08-06T06:24:14.853Z,99.90
2018-08-06T06:26:42.940Z,99.90
2018-08-06T06:29:11.216Z,99.90
2018-08-06T06:31:39.348Z,99.90
2018-08-06T06:34:07.478Z,99.90
2018-08-06T06:36:35.775Z,99.90
2018-08-06T06:39:08.655Z,99.90
2018-08-06T06:41:36.720Z,99.90
2018-08-06T06:44:05.078Z,99.90
2018-08-06T06:46:34.389Z,99.90
2018-08-06T06:49:02.679Z,99.90
2018-08-06T06:51:30.727Z,99.90
2018-08-06T06:53:58.791Z,99.90
2018-08-06T06:56:27.544Z,99.90
2018-08-06T06:58:56.432Z,99.90
2018-08-06T07:01:25.776Z,99.90
2018-08-06T07:03:53.806Z,99.90
2018-08-06T07:06:21.936Z,99.80
2018-08-06T07:08:49.872Z,96.40
2018-08-06T07:11:17.864Z,94.80
2018-08-06T07:13:47.596Z,92.80
2018-08-06T07:16:15.737Z,90.70
2018-08-06T07:18:44.465Z,90.60
2018-08-06T07:21:13.304Z,87.70
2018-08-06T07:23:41.381Z,85.60
2018-08-06T07:26:10.162Z,84.10
2018-08-06T07:28:38.211Z,80.60
2018-08-06T07:31:06.517Z,79.90
2018-08-06T07:33:34.710Z,79.70
2018-08-06T07:36:03.544Z,78.80
2018-08-06T07:38:32.349Z,76.80
2018-08-06T07:41:00.532Z,75.70
2018-08-06T07:43:28.581Z,75.00
2018-08-06T07:45:56.771Z,74.00
2018-08-06T07:48:24.742Z,73.00
2018-08-06T07:50:52.706Z,71.90
2018-08-06T07:53:20.841Z,73.50
2018-08-06T07:55:49.417Z,73.70
2018-08-06T07:58:17.575Z,71.00
2018-08-06T08:00:45.760Z,71.80
2018-08-06T08:03:13.963Z,72.70
2018-08-06T08:05:41.998Z,71.10
2018-08-06T08:08:10.945Z,70.00
2018-08-06T08:10:39.700Z,68.10
2018-08-06T08:13:07.984Z,68.00
2018-08-06T08:15:37.218Z,68.20
2018-08-06T08:18:05.318Z,67.60
2018-08-06T08:20:33.391Z,66.90
2018-08-06T08:23:01.520Z,69.00
2018-08-06T08:25:29.830Z,67.50
2018-08-06T08:27:57.980Z,65.10
2018-08-06T08:30:28.406Z,65.40
2018-08-06T08:32:58.067Z,64.40
2018-08-06T08:35:31.222Z,64.40
2018-08-06T08:38:02.436Z,62.60
2018-08-06T08:40:30.498Z,61.20
2018-08-06T08:42:59.805Z,60.30
2018-08-06T08:45:27.911Z,59.50
2018-08-06T08:47:55.983Z,61.10
2018-08-06T08:50:24.215Z,60.70
2018-08-06T08:52:52.271Z,60.20
2018-08-06T08:55:22.429Z,58.70
2018-08-06T08:57:51.153Z,58.50
2018-08-06T09:00:21.674Z,59.10
2018-08-06T09:02:51.750Z,59.30
2018-08-06T09:05:23.056Z,59.00
2018-08-06T09:10:20.801Z,58.40
2018-08-06T09:12:50.552Z,57.00
2018-08-06T09:15:26.477Z,55.00
2018-08-06T09:17:55.672Z,55.20
2018-08-06T09:20:24.697Z,54.90
2018-08-06T09:22:53.737Z,57.60
2018-08-06T09:25:22.836Z,58.20
2018-08-06T09:27:52.079Z,58.20
2018-08-06T09:30:22.696Z,57.60
2018-08-06T09:32:57.838Z,55.70
2018-08-06T09:35:26.073Z,52.80
2018-08-06T09:37:55.549Z,55.30
2018-08-06T09:40:24.454Z,53.90
2018-08-06T09:42:56.492Z,56.30
2018-08-06T09:45:26.227Z,58.50
2018-08-06T09:47:56.174Z,59.20
2018-08-06T09:50:25.158Z,58.70
2018-08-06T09:52:53.772Z,58.90
2018-08-06T09:55:24.996Z,59.30
2018-08-06T09:57:53.237Z,59.90
2018-08-06T10:00:28.084Z,59.40
2018-08-06T10:02:57.740Z,59.50
2018-08-06T10:05:26.477Z,61.00
2018-08-06T10:07:56.020Z,60.60
2018-08-06T10:10:24.187Z,60.00
2018-08-06T10:12:52.365Z,60.20
2018-08-06T10:15:21.394Z,59.10
2018-08-06T10:17:55.526Z,58.30
2018-08-06T10:20:27.098Z,58.90
2018-08-06T10:22:57.410Z,59.20
2018-08-06T10:25:29.783Z,60.00
2018-08-06T10:27:59.852Z,59.50
2018-08-06T10:30:28.924Z,59.20
2018-08-06T10:32:56.908Z,58.40
2018-08-06T10:35:26.956Z,58.50
2018-08-06T10:37:58.603Z,58.40
2018-08-06T10:40:36.733Z,58.90
2018-08-06T10:43:06.962Z,57.60
2018-08-06T10:45:35.923Z,57.40
2018-08-06T10:48:04.616Z,57.60
2018-08-06T10:50:36.254Z,57.90
2018-08-06T10:53:05.850Z,59.00
2018-08-06T10:55:34.012Z,58.70
2018-08-06T10:58:02.046Z,58.10
2018-08-06T11:00:31.135Z,58.00
2018-08-06T11:03:00.561Z,58.10
2018-08-06T11:05:28.564Z,58.00
2018-08-06T11:08:00.025Z,57.90
2018-08-06T11:10:29.692Z,57.40
2018-08-06T11:13:00.481Z,57.60
2018-08-06T11:15:29.754Z,57.50
2018-08-06T11:17:59.044Z,57.90
2018-08-06T11:22:57.477Z,58.10
2018-08-06T11:25:25.485Z,58.20
2018-08-06T11:30:23.773Z,57.60
2018-08-06T11:32:53.461Z,57.80
2018-08-06T11:35:21.608Z,57.80
2018-08-06T11:37:49.789Z,57.40
2018-08-06T11:40:18.198Z,56.60
2018-08-06T11:42:48.676Z,56.50
2018-08-06T11:45:20.754Z,57.00
2018-08-06T11:47:49.685Z,57.00
2018-08-06T11:50:17.840Z,56.20
2018-08-06T11:52:46.443Z,56.60
2018-08-06T11:55:15.036Z,57.10
2018-08-06T11:57:43.382Z,56.80
2018-08-06T12:00:15.830Z,56.70
2018-08-06T12:02:45.051Z,56.50
2018-08-06T12:05:13.900Z,56.80
2018-08-06T12:07:41.891Z,57.20
2018-08-06T12:10:16.128Z,56.50
2018-08-06T12:12:51.369Z,56.70
2018-08-06T12:15:21.359Z,56.20
2018-08-06T12:17:53.937Z,55.60
2018-08-06T12:20:24.764Z,54.00
2018-08-06T12:22:52.921Z,54.40
2018-08-06T12:25:20.917Z,54.60
2018-08-06T12:27:49.427Z,54.70
2018-08-06T12:30:19.855Z,54.20
2018-08-06T12:32:49.695Z,53.30
2018-08-06T12:35:17.902Z,51.30
2018-08-06T12:37:48.058Z,51.40
2018-08-06T12:40:18.038Z,51.10
2018-08-06T12:42:47.444Z,50.30
2018-08-06T12:45:16.185Z,50.20
2018-08-06T12:47:48.005Z,50.20
2018-08-06T12:50:16.654Z,50.00
2018-08-06T12:52:44.915Z,49.80
2018-08-06T12:55:16.016Z,50.60
2018-08-06T12:57:44.507Z,51.00
2018-08-06T13:00:18.794Z,50.20
2018-08-06T13:02:47.677Z,50.40
2018-08-06T13:05:16.244Z,50.20
2018-08-06T13:07:46.222Z,50.30
2018-08-06T13:10:14.619Z,49.70
2018-08-06T13:12:44.011Z,49.70
2018-08-06T13:15:14.140Z,49.60
2018-08-06T13:17:42.862Z,47.20
2018-08-06T13:20:12.944Z,46.70
2018-08-06T13:22:43.800Z,45.70
2018-08-06T13:25:17.544Z,45.40
2018-08-06T13:27:47.018Z,45.60
2018-08-06T13:30:16.102Z,45.00
2018-08-06T13:32:46.310Z,44.90
2018-08-06T13:35:15.978Z,45.20
2018-08-06T13:37:45.448Z,44.80
2018-08-06T13:40:14.217Z,45.20
2018-08-06T13:42:43.934Z,45.40
2018-08-06T13:45:13.464Z,45.70
2018-08-06T13:47:41.759Z,44.70
2018-08-06T13:50:11.727Z,44.30
2018-08-06T13:52:39.786Z,44.70
2018-08-06T13:55:09.418Z,44.80
2018-08-06T13:57:40.760Z,44.40
2018-08-06T14:00:17.252Z,44.30
2018-08-06T14:02:46.192Z,43.90
2018-08-06T14:05:15.388Z,44.00
2018-08-06T14:07:45.005Z,44.20
2018-08-06T14:10:13.793Z,43.40
2018-08-06T14:12:41.958Z,43.40
2018-08-06T14:15:11.499Z,42.90
2018-08-06T14:17:44.367Z,44.10
2018-08-06T14:20:17.992Z,45.10
2018-08-06T14:22:46.668Z,45.10
2018-08-06T14:25:14.771Z,46.00
2018-08-06T14:27:43.523Z,46.10
2018-08-06T14:30:13.340Z,46.20
2018-08-06T14:32:42.063Z,45.70
2018-08-06T14:35:10.850Z,46.40
2018-08-06T14:37:38.878Z,45.50
2018-08-06T14:40:10.770Z,45.40
2018-08-06T14:42:39.727Z,45.40
2018-08-06T14:45:09.688Z,45.80
2018-08-06T14:47:37.839Z,45.90
2018-08-06T14:50:08.382Z,45.90
2018-08-06T14:52:38.255Z,46.00
2018-08-06T14:55:07.831Z,46.30
2018-08-06T14:57:36.348Z,45.70
2018-08-06T15:00:15.588Z,44.20
2018-08-06T15:02:43.804Z,43.20
2018-08-06T15:05:11.848Z,44.50
2018-08-06T15:07:41.961Z,44.30
2018-08-06T15:10:11.649Z,43.80
2018-08-06T15:12:40.775Z,42.80
2018-08-06T15:15:11.580Z,42.40
2018-08-06T15:17:40.687Z,43.10
2018-08-06T15:20:11.941Z,42.10
2018-08-06T15:22:40.163Z,43.00
2018-08-06T15:25:11.041Z,43.20
2018-08-06T15:27:40.560Z,44.10
2018-08-06T15:30:09.589Z,43.80
2018-08-06T15:32:38.484Z,45.10
2018-08-06T15:35:08.682Z,45.70
2018-08-06T15:37:38.377Z,46.00
2018-08-06T15:40:09.856Z,46.10
2018-08-06T15:42:37.948Z,46.00
2018-08-06T15:45:06.192Z,46.10
2018-08-06T15:47:34.942Z,46.10
2018-08-06T15:50:05.513Z,46.20
2018-08-06T15:52:36.202Z,45.70
2018-08-06T15:55:04.386Z,46.00
2018-08-06T15:57:33.270Z,46.60
2018-08-06T16:02:38.677Z,48.40
2018-08-06T16:05:08.678Z,48.80
2018-08-06T16:07:36.812Z,48.80
2018-08-06T16:10:06.071Z,48.60
2018-08-06T16:12:34.129Z,48.90
2018-08-06T16:15:03.034Z,49.00
2018-08-06T16:17:31.062Z,49.30
2018-08-06T16:20:01.857Z,49.40
2018-08-06T16:22:29.812Z,49.60
2018-08-06T16:24:58.032Z,50.00
2018-08-06T16:27:26.061Z,50.10
2018-08-06T16:29:54.361Z,50.50
2018-08-06T16:32:23.604Z,50.40
2018-08-06T16:34:51.738Z,50.50
2018-08-06T16:37:22.005Z,51.40
2018-08-06T16:39:50.325Z,51.70
2018-08-06T16:42:18.556Z,52.00
2018-08-06T16:44:46.908Z,52.10
2018-08-06T16:47:15.096Z,52.10
2018-08-06T16:49:44.209Z,51.70
2018-08-06T16:52:12.368Z,51.90
2018-08-06T16:54:41.876Z,51.90
2018-08-06T16:57:09.957Z,52.20
2018-08-06T16:59:38.390Z,52.20
2018-08-06T17:02:06.561Z,52.20
2018-08-06T17:04:35.453Z,51.50
2018-08-06T17:07:08.021Z,52.50
2018-08-06T17:09:37.715Z,51.90
2018-08-06T17:12:07.197Z,52.30
2018-08-06T17:14:37.505Z,52.30
2018-08-06T17:17:05.873Z,52.60
2018-08-06T17:19:34.546Z,52.70
2018-08-06T17:22:02.684Z,52.40
2018-08-06T17:24:31.430Z,52.30
2018-08-06T17:27:00.401Z,52.60
2018-08-06T17:29:28.695Z,52.70
2018-08-06T17:31:59.073Z,52.80
2018-08-06T17:34:28.787Z,53.10
2018-08-06T17:36:58.761Z,53.40
2018-08-06T17:39:28.345Z,53.80
2018-08-06T17:41:56.412Z,54.00
2018-08-06T17:44:25.501Z,54.00
2018-08-06T17:46:53.594Z,54.20
2018-08-06T17:49:22.163Z,54.30
2018-08-06T17:51:52.038Z,54.60
2018-08-06T17:54:20.111Z,54.80
2018-08-06T17:56:48.384Z,55.00
2018-08-06T17:59:17.876Z,55.10
2018-08-06T18:01:48.984Z,55.30
2018-08-06T18:04:18.396Z,55.30
2018-08-06T18:06:47.306Z,55.20
2018-08-06T18:09:16.110Z,55.50
2018-08-06T18:11:44.849Z,55.70
2018-08-06T18:14:12.982Z,55.70
2018-08-06T18:16:42.442Z,55.90
2018-08-06T18:19:11.377Z,56.00
2018-08-06T18:21:39.488Z,56.40
2018-08-06T18:24:08.793Z,56.20
2018-08-06T18:26:38.650Z,56.40
2018-08-06T18:29:06.718Z,56.40
2018-08-06T18:31:34.905Z,56.60
2018-08-06T18:34:04.331Z,56.80
2018-08-06T18:36:34.922Z,56.10
2018-08-06T18:39:04.024Z,56.10
2018-08-06T18:41:32.182Z,56.40
2018-08-06T18:44:01.034Z,56.80
2018-08-06T18:46:30.854Z,57.30
2018-08-06T18:49:00.043Z,57.40
2018-08-06T18:51:28.070Z,58.60
2018-08-06T18:53:56.839Z,60.10
2018-08-06T18:56:27.002Z,60.00
2018-08-06T18:58:55.944Z,61.50
2018-08-06T19:01:24.698Z,61.90
2018-08-06T19:03:53.696Z,62.60
2018-08-06T19:06:23.774Z,63.00
2018-08-06T19:08:51.848Z,63.40
2018-08-06T19:11:23.740Z,64.60
2018-08-06T19:14:25.345Z,64.10
2018-08-06T19:16:54.870Z,64.80
2018-08-06T19:19:26.285Z,65.00
2018-08-06T19:21:55.785Z,65.20
2018-08-06T19:24:29.238Z,65.30
2018-08-06T19:26:57.892Z,65.40
2018-08-06T19:29:25.972Z,66.00
2018-08-06T19:31:55.712Z,66.60
2018-08-06T19:34:27.155Z,67.10
2018-08-06T19:37:00.808Z,67.60
2018-08-06T19:39:37.725Z,67.90
2018-08-06T19:42:08.216Z,68.40
2018-08-06T19:44:37.985Z,68.70
2018-08-06T19:47:11.431Z,69.20
2018-08-06T19:49:46.966Z,69.80
2018-08-06T19:52:17.048Z,70.20
2018-08-06T19:54:45.377Z,70.80
2018-08-06T19:57:21.062Z,70.90
2018-08-06T19:59:50.301Z,71.50
2018-08-06T20:02:20.419Z,71.80
2018-08-06T20:04:58.025Z,71.50
2018-08-06T20:07:26.456Z,71.70
2018-08-06T20:09:55.684Z,71.90
2018-08-06T20:12:24.814Z,72.00
2018-08-06T20:14:53.012Z,71.90
2018-08-06T20:17:21.292Z,73.00
2018-08-06T20:19:52.415Z,74.40
2018-08-06T20:22:24.692Z,75.20
2018-08-06T20:24:54.404Z,75.90
2018-08-06T20:27:24.469Z,76.40
2018-08-06T20:29:53.392Z,76.80
2018-08-06T20:32:22.618Z,77.00
2018-08-06T20:34:52.306Z,77.60
2018-08-06T20:37:23.769Z,78.00
2018-08-06T20:39:51.748Z,78.30
2018-08-06T20:42:20.367Z,78.70
2018-08-06T20:44:48.371Z,78.80
2018-08-06T20:47:16.424Z,78.90
2018-08-06T20:49:46.120Z,78.60
2018-08-06T20:52:14.104Z,78.50
2018-08-06T20:54:43.399Z,78.70
2018-08-06T20:57:11.460Z,78.80
2018-08-06T20:59:39.568Z,78.80
2018-08-06T21:02:07.600Z,78.60
2018-08-06T21:04:36.747Z,78.80
2018-08-06T21:07:05.085Z,78.90
2018-08-06T21:09:33.566Z,79.20
2018-08-06T21:12:01.672Z,79.30
2018-08-06T21:14:29.727Z,79.40
2018-08-06T21:16:57.776Z,79.70
2018-08-06T21:19:27.124Z,80.00
2018-08-06T21:21:55.214Z,79.80
2018-08-06T21:24:24.311Z,80.00
2018-08-06T21:26:53.914Z,79.80
2018-08-06T21:31:49.766Z,80.10
2018-08-06T21:34:18.634Z,79.80
2018-08-06T21:36:47.016Z,79.70
2018-08-06T21:39:16.851Z,79.90
2018-08-06T21:41:45.731Z,79.20
2018-08-06T21:44:13.838Z,79.20
2018-08-06T21:46:41.853Z,79.40
2018-08-06T21:49:09.936Z,79.70
2018-08-06T21:51:39.508Z,80.10
2018-08-06T21:54:07.974Z,81.20
2018-08-06T21:56:35.968Z,82.30
2018-08-06T21:59:04.896Z,82.20
2018-08-06T22:01:33.340Z,82.00
2018-08-06T22:04:02.713Z,82.50
2018-08-06T22:06:30.792Z,83.80
2018-08-06T22:08:59.870Z,84.50
2018-08-06T22:11:28.736Z,85.30
2018-08-06T22:13:57.706Z,85.90
2018-08-06T22:16:27.349Z,85.60
2018-08-06T22:18:55.538Z,85.80
2018-08-06T22:21:23.569Z,86.20
2018-08-06T22:23:51.803Z,87.00
2018-08-06T22:26:20.032Z,86.90
2018-08-06T22:28:50.608Z,87.20
2018-08-06T22:31:19.845Z,87.10
2018-08-06T22:33:48.221Z,87.20
2018-08-06T22:38:44.875Z,86.30
2018-08-06T22:41:12.820Z,85.80
2018-08-06T22:43:40.796Z,86.30
2018-08-06T22:46:09.008Z,86.00
2018-08-06T22:48:37.178Z,85.90
2018-08-06T22:52:08.740Z,85.70
2018-08-06T22:54:36.759Z,85.70
2018-08-06T22:57:04.968Z,86.40
2018-08-06T22:59:33.116Z,86.70
2018-08-06T23:02:02.064Z,86.80
2018-08-06T23:04:31.659Z,86.20
2018-08-06T23:06:59.706Z,84.70
2018-08-06T23:09:27.706Z,86.00
2018-08-06T23:11:55.842Z,85.70
2018-08-06T23:14:24.505Z,85.90
2018-08-06T23:16:52.709Z,85.20
2018-08-06T23:19:20.747Z,85.60
2018-08-06T23:21:48.760Z,85.50
2018-08-06T23:24:16.732Z,86.00
2018-08-06T23:26:45.707Z,85.70
2018-08-06T23:29:13.792Z,85.50
2018-08-06T23:31:41.750Z,86.10
2018-08-06T23:34:10.024Z,85.00
2018-08-06T23:36:38.789Z,84.90
2018-08-06T23:39:09.992Z,89.50
2018-08-06T23:41:38.849Z,90.50
2018-08-06T23:44:08.408Z,91.40
2018-08-06T23:46:36.523Z,92.20
2018-08-06T23:49:04.539Z,93.40
2018-08-06T23:51:33.141Z,94.50
2018-08-06T23:56:29.084Z,94.50
